sensor_id;sensor_type;location;lat;lon;timestamp;pressure;altitude;pressure_sealevel;temperature;humidity
7660;BME280;3872;47.902;8.162;2023-07-29T00:00:04;91721.63;;;14.85;100.00
7660;BME280;3872;47.902;8.162;2023-07-29T00:02:38;91724.63;;;15.05;100.00
7660;BME280;3872;47.902;8.162;2023-07-29T00:05:06;91723.84;;;15.04;100.00
7660;BME280;3872;47.902;8.162;2023-07-29T00:07:33;91714.66;;;15.22;100.00
7660;BME280;3872;47.902;8.162;2023-07-29T00:09:59;91721.72;;;14.98;100.00
7660;BME280;3872;47.902;8.162;2023-07-29T00:12:26;91711.56;;;15.00;100.00
7660;BME280;3872;47.902;8.162;2023-07-29T00:14:52;91704.31;;;15.09;100.00
7660;BME280;3872;47.902;8.162;2023-07-29T00:17:19;91706.00;;;14.93;100.00
7660;BME280;3872;47.902;8.162;2023-07-29T00:19:46;91699.22;;;14.83;100.00
7660;BME280;3872;47.902;8.162;2023-07-29T00:22:14;91690.97;;;14.84;100.00
7660;BME280;3872;47.902;8.162;2023-07-29T00:24:40;91688.63;;;14.83;100.00
7660;BME280;3872;47.902;8.162;2023-07-29T00:27:07;91689.00;;;14.73;100.00
7660;BME280;3872;47.902;8.162;2023-07-29T00:29:33;91681.66;;;14.78;100.00
7660;BME280;3872;47.902;8.162;2023-07-29T00:32:00;91693.16;;;14.82;100.00
7660;BME280;3872;47.902;8.162;2023-07-29T00:34:26;91693.94;;;14.83;100.00
7660;BME280;3872;47.902;8.162;2023-07-29T00:36:53;91686.78;;;14.83;100.00
7660;BME280;3872;47.902;8.162;2023-07-29T00:39:21;91692.56;;;14.98;100.00
7660;BME280;3872;47.902;8.162;2023-07-29T00:41:49;91688.38;;;14.97;100.00
7660;BME280;3872;47.902;8.162;2023-07-29T00:44:15;91695.66;;;14.79;100.00
7660;BME280;3872;47.902;8.162;2023-07-29T00:46:42;91687.81;;;14.70;100.00
7660;BME280;3872;47.902;8.162;2023-07-29T00:49:11;91693.09;;;14.70;100.00
7660;BME280;3872;47.902;8.162;2023-07-29T00:51:37;91689.72;;;14.82;100.00
7660;BME280;3872;47.902;8.162;2023-07-29T00:54:04;91685.59;;;14.72;100.00
7660;BME280;3872;47.902;8.162;2023-07-29T00:56:33;91674.69;;;14.74;100.00
7660;BME280;3872;47.902;8.162;2023-07-29T00:59:00;91670.09;;;14.83;100.00
7660;BME280;3872;47.902;8.162;2023-07-29T01:01:27;91672.91;;;14.78;100.00
7660;BME280;3872;47.902;8.162;2023-07-29T01:03:54;91672.53;;;14.88;100.00
7660;BME280;3872;47.902;8.162;2023-07-29T01:06:29;91671.66;;;14.84;100.00
7660;BME280;3872;47.902;8.162;2023-07-29T01:09:02;91668.13;;;14.92;100.00
7660;BME280;3872;47.902;8.162;2023-07-29T01:11:38;91667.69;;;14.90;100.00
7660;BME280;3872;47.902;8.162;2023-07-29T01:14:14;91669.19;;;14.79;100.00
7660;BME280;3872;47.902;8.162;2023-07-29T01:16:46;91664.13;;;14.65;100.00
7660;BME280;3872;47.902;8.162;2023-07-29T01:19:34;91661.38;;;14.62;100.00
7660;BME280;3872;47.902;8.162;2023-07-29T01:22:09;91658.78;;;14.53;100.00
7660;BME280;3872;47.902;8.162;2023-07-29T01:24:38;91658.25;;;14.60;100.00
7660;BME280;3872;47.902;8.162;2023-07-29T01:27:05;91659.00;;;14.69;100.00
7660;BME280;3872;47.902;8.162;2023-07-29T01:29:32;91652.41;;;14.75;100.00
7660;BME280;3872;47.902;8.162;2023-07-29T01:32:04;91651.88;;;14.61;100.00
7660;BME280;3872;47.902;8.162;2023-07-29T01:34:39;91650.47;;;14.63;100.00
7660;BME280;3872;47.902;8.162;2023-07-29T01:37:09;91652.34;;;14.63;100.00
7660;BME280;3872;47.902;8.162;2023-07-29T01:39:41;91650.06;;;14.53;100.00
7660;BME280;3872;47.902;8.162;2023-07-29T01:42:11;91652.59;;;14.49;100.00
7660;BME280;3872;47.902;8.162;2023-07-29T01:44:37;91660.91;;;14.60;100.00
7660;BME280;3872;47.902;8.162;2023-07-29T01:47:04;91653.38;;;14.70;100.00
7660;BME280;3872;47.902;8.162;2023-07-29T01:49:33;91653.44;;;14.62;100.00
7660;BME280;3872;47.902;8.162;2023-07-29T01:52:00;91643.78;;;14.78;100.00
7660;BME280;3872;47.902;8.162;2023-07-29T01:54:26;91658.22;;;14.68;100.00
7660;BME280;3872;47.902;8.162;2023-07-29T01:56:54;91654.38;;;14.78;100.00
7660;BME280;3872;47.902;8.162;2023-07-29T01:59:21;91653.50;;;14.74;100.00
7660;BME280;3872;47.902;8.162;2023-07-29T02:01:47;91661.63;;;14.69;100.00
7660;BME280;3872;47.902;8.162;2023-07-29T02:04:14;91661.69;;;14.60;100.00
7660;BME280;3872;47.902;8.162;2023-07-29T02:06:41;91656.50;;;14.64;100.00
7660;BME280;3872;47.902;8.162;2023-07-29T02:09:07;91652.72;;;14.53;100.00
7660;BME280;3872;47.902;8.162;2023-07-29T02:11:34;91651.94;;;14.52;100.00
7660;BME280;3872;47.902;8.162;2023-07-29T02:14:02;91660.53;;;14.49;100.00
7660;BME280;3872;47.902;8.162;2023-07-29T02:16:29;91663.38;;;14.65;100.00
7660;BME280;3872;47.902;8.162;2023-07-29T02:18:55;91655.72;;;14.42;100.00
7660;BME280;3872;47.902;8.162;2023-07-29T02:21:22;91654.63;;;14.43;100.00
7660;BME280;3872;47.902;8.162;2023-07-29T02:23:49;91652.19;;;14.38;100.00
7660;BME280;3872;47.902;8.162;2023-07-29T02:26:16;91653.91;;;14.34;100.00
7660;BME280;3872;47.902;8.162;2023-07-29T02:28:42;91652.19;;;14.38;100.00
7660;BME280;3872;47.902;8.162;2023-07-29T02:31:15;91658.84;;;14.44;100.00
7660;BME280;3872;47.902;8.162;2023-07-29T02:33:42;91661.91;;;14.26;100.00
7660;BME280;3872;47.902;8.162;2023-07-29T02:36:09;91656.56;;;14.34;100.00
7660;BME280;3872;47.902;8.162;2023-07-29T02:38:35;91657.66;;;14.33;100.00
7660;BME280;3872;47.902;8.162;2023-07-29T02:41:02;91660.34;;;14.25;100.00
7660;BME280;3872;47.902;8.162;2023-07-29T02:43:29;91662.47;;;14.40;100.00
7660;BME280;3872;47.902;8.162;2023-07-29T02:45:55;91655.63;;;14.30;100.00
7660;BME280;3872;47.902;8.162;2023-07-29T02:48:24;91662.22;;;14.24;100.00
7660;BME280;3872;47.902;8.162;2023-07-29T02:50:52;91657.94;;;14.11;100.00
7660;BME280;3872;47.902;8.162;2023-07-29T02:53:18;91652.81;;;14.06;100.00
7660;BME280;3872;47.902;8.162;2023-07-29T02:55:45;91654.63;;;14.14;100.00
7660;BME280;3872;47.902;8.162;2023-07-29T02:58:11;91653.47;;;14.03;100.00
7660;BME280;3872;47.902;8.162;2023-07-29T03:00:38;91660.03;;;14.26;100.00
7660;BME280;3872;47.902;8.162;2023-07-29T03:03:07;91648.84;;;14.21;100.00
7660;BME280;3872;47.902;8.162;2023-07-29T03:05:35;91649.47;;;14.18;100.00
7660;BME280;3872;47.902;8.162;2023-07-29T03:08:03;91658.50;;;14.17;100.00
7660;BME280;3872;47.902;8.162;2023-07-29T03:10:29;91657.50;;;14.00;100.00
7660;BME280;3872;47.902;8.162;2023-07-29T03:12:56;91654.94;;;13.92;100.00
7660;BME280;3872;47.902;8.162;2023-07-29T03:15:23;91657.28;;;13.85;100.00
7660;BME280;3872;47.902;8.162;2023-07-29T03:17:50;91656.53;;;14.14;100.00
7660;BME280;3872;47.902;8.162;2023-07-29T03:20:17;91637.94;;;14.22;100.00
7660;BME280;3872;47.902;8.162;2023-07-29T03:22:45;91625.47;;;14.23;100.00
7660;BME280;3872;47.902;8.162;2023-07-29T03:25:13;91618.13;;;13.78;100.00
7660;BME280;3872;47.902;8.162;2023-07-29T03:27:39;91624.75;;;13.55;100.00
7660;BME280;3872;47.902;8.162;2023-07-29T03:30:06;91632.59;;;14.01;100.00
7660;BME280;3872;47.902;8.162;2023-07-29T03:32:33;91625.72;;;14.09;100.00
7660;BME280;3872;47.902;8.162;2023-07-29T03:35:00;91631.81;;;14.01;100.00
7660;BME280;3872;47.902;8.162;2023-07-29T03:37:26;91628.31;;;14.18;100.00
7660;BME280;3872;47.902;8.162;2023-07-29T03:39:54;91628.75;;;13.99;100.00
7660;BME280;3872;47.902;8.162;2023-07-29T03:42:20;91632.66;;;13.93;100.00
7660;BME280;3872;47.902;8.162;2023-07-29T03:44:47;91630.50;;;14.16;100.00
7660;BME280;3872;47.902;8.162;2023-07-29T03:47:14;91624.03;;;14.04;100.00
7660;BME280;3872;47.902;8.162;2023-07-29T03:49:42;91632.09;;;14.08;100.00
7660;BME280;3872;47.902;8.162;2023-07-29T03:52:09;91628.16;;;14.14;100.00
7660;BME280;3872;47.902;8.162;2023-07-29T03:54:36;91630.59;;;14.28;100.00
7660;BME280;3872;47.902;8.162;2023-07-29T03:57:05;91634.25;;;14.35;100.00
7660;BME280;3872;47.902;8.162;2023-07-29T03:59:32;91629.44;;;14.08;100.00
7660;BME280;3872;47.902;8.162;2023-07-29T04:01:58;91624.28;;;13.91;100.00
7660;BME280;3872;47.902;8.162;2023-07-29T04:04:25;91619.56;;;14.26;100.00
7660;BME280;3872;47.902;8.162;2023-07-29T04:06:52;91611.38;;;14.39;100.00
7660;BME280;3872;47.902;8.162;2023-07-29T04:09:18;91616.38;;;14.41;100.00
7660;BME280;3872;47.902;8.162;2023-07-29T04:11:45;91605.72;;;13.99;100.00
7660;BME280;3872;47.902;8.162;2023-07-29T04:14:13;91611.97;;;14.16;100.00
7660;BME280;3872;47.902;8.162;2023-07-29T04:16:39;91621.19;;;14.39;100.00
7660;BME280;3872;47.902;8.162;2023-07-29T04:19:06;91620.44;;;14.09;100.00
7660;BME280;3872;47.902;8.162;2023-07-29T04:21:32;91632.16;;;13.99;100.00
7660;BME280;3872;47.902;8.162;2023-07-29T04:23:59;91631.38;;;13.99;100.00
7660;BME280;3872;47.902;8.162;2023-07-29T04:26:26;91631.41;;;14.20;100.00
7660;BME280;3872;47.902;8.162;2023-07-29T04:28:53;91618.81;;;14.17;100.00
7660;BME280;3872;47.902;8.162;2023-07-29T04:31:21;91617.69;;;14.26;100.00
7660;BME280;3872;47.902;8.162;2023-07-29T04:33:47;91621.47;;;13.87;100.00
7660;BME280;3872;47.902;8.162;2023-07-29T04:36:14;91622.84;;;13.93;100.00
7660;BME280;3872;47.902;8.162;2023-07-29T04:38:43;91630.72;;;14.31;100.00
7660;BME280;3872;47.902;8.162;2023-07-29T04:41:10;91626.28;;;14.15;100.00
7660;BME280;3872;47.902;8.162;2023-07-29T04:43:36;91632.59;;;14.31;100.00
7660;BME280;3872;47.902;8.162;2023-07-29T04:46:06;91641.09;;;14.45;100.00
7660;BME280;3872;47.902;8.162;2023-07-29T04:48:34;91643.22;;;14.22;100.00
7660;BME280;3872;47.902;8.162;2023-07-29T04:51:01;91641.88;;;14.37;100.00
7660;BME280;3872;47.902;8.162;2023-07-29T04:53:27;91644.44;;;14.54;100.00
7660;BME280;3872;47.902;8.162;2023-07-29T04:55:53;91638.63;;;14.61;100.00
7660;BME280;3872;47.902;8.162;2023-07-29T04:58:20;91636.94;;;14.06;100.00
7660;BME280;3872;47.902;8.162;2023-07-29T05:00:47;91645.88;;;14.22;100.00
7660;BME280;3872;47.902;8.162;2023-07-29T05:03:14;91645.59;;;14.44;100.00
7660;BME280;3872;47.902;8.162;2023-07-29T05:05:42;91640.53;;;14.93;100.00
7660;BME280;3872;47.902;8.162;2023-07-29T05:08:08;91646.19;;;14.92;100.00
7660;BME280;3872;47.902;8.162;2023-07-29T05:10:35;91655.09;;;14.66;100.00
7660;BME280;3872;47.902;8.162;2023-07-29T05:13:01;91653.69;;;14.89;100.00
7660;BME280;3872;47.902;8.162;2023-07-29T05:15:28;91661.41;;;15.27;100.00
7660;BME280;3872;47.902;8.162;2023-07-29T05:17:54;91655.63;;;15.46;100.00
7660;BME280;3872;47.902;8.162;2023-07-29T05:20:21;91650.78;;;15.48;100.00
7660;BME280;3872;47.902;8.162;2023-07-29T05:22:50;91648.84;;;15.70;100.00
7660;BME280;3872;47.902;8.162;2023-07-29T05:25:16;91641.53;;;15.54;100.00
7660;BME280;3872;47.902;8.162;2023-07-29T05:27:43;91644.25;;;15.91;100.00
7660;BME280;3872;47.902;8.162;2023-07-29T05:30:09;91632.94;;;15.70;100.00
7660;BME280;3872;47.902;8.162;2023-07-29T05:32:36;91640.69;;;15.99;100.00
7660;BME280;3872;47.902;8.162;2023-07-29T05:35:06;91638.25;;;16.06;100.00
7660;BME280;3872;47.902;8.162;2023-07-29T05:37:33;91636.81;;;16.09;100.00
7660;BME280;3872;47.902;8.162;2023-07-29T05:40:00;91633.28;;;16.17;100.00
7660;BME280;3872;47.902;8.162;2023-07-29T05:42:28;91638.59;;;16.17;100.00
7660;BME280;3872;47.902;8.162;2023-07-29T05:44:54;91632.38;;;16.37;100.00
7660;BME280;3872;47.902;8.162;2023-07-29T05:47:21;91630.88;;;16.76;100.00
7660;BME280;3872;47.902;8.162;2023-07-29T05:49:48;91635.66;;;16.98;100.00
7660;BME280;3872;47.902;8.162;2023-07-29T05:52:14;91635.72;;;17.57;100.00
7660;BME280;3872;47.902;8.162;2023-07-29T05:54:41;91654.81;;;18.07;100.00
7660;BME280;3872;47.902;8.162;2023-07-29T05:57:10;91646.34;;;18.01;100.00
7660;BME280;3872;47.902;8.162;2023-07-29T05:59:38;91634.63;;;18.21;100.00
7660;BME280;3872;47.902;8.162;2023-07-29T06:02:05;91630.19;;;17.94;100.00
7660;BME280;3872;47.902;8.162;2023-07-29T06:04:32;91636.94;;;18.38;100.00
7660;BME280;3872;47.902;8.162;2023-07-29T06:06:59;91633.00;;;18.32;100.00
7660;BME280;3872;47.902;8.162;2023-07-29T06:09:25;91638.78;;;18.19;100.00
7660;BME280;3872;47.902;8.162;2023-07-29T06:11:52;91637.59;;;18.67;100.00
7660;BME280;3872;47.902;8.162;2023-07-29T06:14:19;91634.50;;;18.49;100.00
7660;BME280;3872;47.902;8.162;2023-07-29T06:16:46;91630.25;;;18.80;100.00
7660;BME280;3872;47.902;8.162;2023-07-29T06:19:13;91646.66;;;18.82;100.00
7660;BME280;3872;47.902;8.162;2023-07-29T06:21:40;91654.06;;;18.72;100.00
7660;BME280;3872;47.902;8.162;2023-07-29T06:24:07;91657.66;;;18.80;100.00
7660;BME280;3872;47.902;8.162;2023-07-29T06:26:34;91647.75;;;18.61;100.00
7660;BME280;3872;47.902;8.162;2023-07-29T06:29:01;91652.00;;;18.82;100.00
7660;BME280;3872;47.902;8.162;2023-07-29T06:31:28;91638.38;;;18.67;100.00
7660;BME280;3872;47.902;8.162;2023-07-29T06:33:55;91631.00;;;18.99;100.00
7660;BME280;3872;47.902;8.162;2023-07-29T06:36:22;91631.28;;;19.13;100.00
7660;BME280;3872;47.902;8.162;2023-07-29T06:38:48;91624.69;;;19.07;100.00
7660;BME280;3872;47.902;8.162;2023-07-29T06:41:15;91628.59;;;19.33;100.00
7660;BME280;3872;47.902;8.162;2023-07-29T06:43:41;91627.84;;;19.51;100.00
7660;BME280;3872;47.902;8.162;2023-07-29T06:46:08;91621.75;;;19.51;100.00
7660;BME280;3872;47.902;8.162;2023-07-29T06:48:36;91626.97;;;19.25;100.00
7660;BME280;3872;47.902;8.162;2023-07-29T06:51:03;91621.44;;;19.56;100.00
7660;BME280;3872;47.902;8.162;2023-07-29T06:53:29;91617.91;;;19.94;100.00
7660;BME280;3872;47.902;8.162;2023-07-29T06:55:56;91625.38;;;19.62;100.00
7660;BME280;3872;47.902;8.162;2023-07-29T06:58:23;91622.44;;;19.67;100.00
7660;BME280;3872;47.902;8.162;2023-07-29T07:00:49;91616.03;;;20.21;100.00
7660;BME280;3872;47.902;8.162;2023-07-29T07:03:16;91608.50;;;20.26;100.00
7660;BME280;3872;47.902;8.162;2023-07-29T07:05:44;91623.97;;;19.91;100.00
7660;BME280;3872;47.902;8.162;2023-07-29T07:08:11;91629.19;;;19.23;100.00
7660;BME280;3872;47.902;8.162;2023-07-29T07:10:37;91650.31;;;19.12;100.00
7660;BME280;3872;47.902;8.162;2023-07-29T07:13:04;91654.47;;;19.09;100.00
7660;BME280;3872;47.902;8.162;2023-07-29T07:15:31;91674.75;;;18.28;100.00
7660;BME280;3872;47.902;8.162;2023-07-29T07:17:58;91672.84;;;18.45;100.00
7660;BME280;3872;47.902;8.162;2023-07-29T07:20:24;91652.00;;;19.01;100.00
7660;BME280;3872;47.902;8.162;2023-07-29T07:22:52;91656.78;;;18.57;100.00
7660;BME280;3872;47.902;8.162;2023-07-29T07:25:19;91655.81;;;18.49;100.00
7660;BME280;3872;47.902;8.162;2023-07-29T07:27:47;91657.38;;;18.50;100.00
7660;BME280;3872;47.902;8.162;2023-07-29T07:31:00;91648.22;;;19.21;100.00
7660;BME280;3872;47.902;8.162;2023-07-29T07:33:27;91644.47;;;19.45;100.00
7660;BME280;3872;47.902;8.162;2023-07-29T07:35:53;91644.78;;;19.21;100.00
7660;BME280;3872;47.902;8.162;2023-07-29T07:38:21;91645.84;;;19.77;100.00
7660;BME280;3872;47.902;8.162;2023-07-29T07:40:57;91643.16;;;19.54;100.00
7660;BME280;3872;47.902;8.162;2023-07-29T07:43:24;91640.50;;;19.16;100.00
7660;BME280;3872;47.902;8.162;2023-07-29T07:45:51;91650.63;;;19.68;100.00
7660;BME280;3872;47.902;8.162;2023-07-29T07:48:23;91649.22;;;19.32;100.00
7660;BME280;3872;47.902;8.162;2023-07-29T07:50:51;91647.88;;;19.84;100.00
7660;BME280;3872;47.902;8.162;2023-07-29T07:54:05;91648.00;;;19.91;100.00
7660;BME280;3872;47.902;8.162;2023-07-29T07:56:31;91642.00;;;19.98;100.00
7660;BME280;3872;47.902;8.162;2023-07-29T07:58:58;91640.03;;;19.72;100.00
7660;BME280;3872;47.902;8.162;2023-07-29T08:01:24;91635.06;;;19.93;100.00
7660;BME280;3872;47.902;8.162;2023-07-29T08:03:51;91632.94;;;20.02;100.00
7660;BME280;3872;47.902;8.162;2023-07-29T08:06:18;91624.47;;;20.23;100.00
7660;BME280;3872;47.902;8.162;2023-07-29T08:08:44;91633.31;;;20.04;100.00
7660;BME280;3872;47.902;8.162;2023-07-29T08:11:12;91636.06;;;19.85;100.00
7660;BME280;3872;47.902;8.162;2023-07-29T08:13:39;91641.69;;;20.25;100.00
7660;BME280;3872;47.902;8.162;2023-07-29T08:16:06;91640.16;;;20.74;100.00
7660;BME280;3872;47.902;8.162;2023-07-29T08:18:32;91638.66;;;20.04;100.00
7660;BME280;3872;47.902;8.162;2023-07-29T08:21:00;91646.59;;;20.46;100.00
7660;BME280;3872;47.902;8.162;2023-07-29T08:23:28;91644.41;;;20.78;100.00
7660;BME280;3872;47.902;8.162;2023-07-29T08:26:02;91637.66;;;20.61;100.00
7660;BME280;3872;47.902;8.162;2023-07-29T08:28:58;91646.31;;;20.78;100.00
7660;BME280;3872;47.902;8.162;2023-07-29T08:31:25;91651.31;;;20.30;100.00
7660;BME280;3872;47.902;8.162;2023-07-29T08:33:51;91637.66;;;20.61;100.00
7660;BME280;3872;47.902;8.162;2023-07-29T08:36:18;91650.09;;;20.77;100.00
7660;BME280;3872;47.902;8.162;2023-07-29T08:38:50;91658.75;;;20.66;100.00
7660;BME280;3872;47.902;8.162;2023-07-29T08:42:01;91647.19;;;21.45;100.00
7660;BME280;3872;47.902;8.162;2023-07-29T08:44:36;91646.72;;;21.09;100.00
7660;BME280;3872;47.902;8.162;2023-07-29T08:47:06;91648.84;;;21.23;100.00
7660;BME280;3872;47.902;8.162;2023-07-29T08:49:33;91660.19;;;20.87;100.00
7660;BME280;3872;47.902;8.162;2023-07-29T08:52:01;91657.63;;;21.24;100.00
7660;BME280;3872;47.902;8.162;2023-07-29T08:54:27;91655.91;;;21.38;100.00
7660;BME280;3872;47.902;8.162;2023-07-29T08:56:55;91672.50;;;21.51;100.00
7660;BME280;3872;47.902;8.162;2023-07-29T09:00:07;91646.41;;;21.44;100.00
7660;BME280;3872;47.902;8.162;2023-07-29T09:02:33;91657.22;;;21.92;100.00
7660;BME280;3872;47.902;8.162;2023-07-29T09:05:01;91664.28;;;21.37;100.00
7660;BME280;3872;47.902;8.162;2023-07-29T09:07:29;91653.13;;;21.01;100.00
7660;BME280;3872;47.902;8.162;2023-07-29T09:09:58;91651.75;;;21.15;100.00
7660;BME280;3872;47.902;8.162;2023-07-29T09:12:25;91656.44;;;21.51;100.00
7660;BME280;3872;47.902;8.162;2023-07-29T09:14:54;91669.91;;;21.28;100.00
7660;BME280;3872;47.902;8.162;2023-07-29T09:17:34;91668.03;;;21.02;100.00
7660;BME280;3872;47.902;8.162;2023-07-29T09:20:01;91675.28;;;21.02;100.00
7660;BME280;3872;47.902;8.162;2023-07-29T09:22:28;91666.41;;;20.94;100.00
7660;BME280;3872;47.902;8.162;2023-07-29T09:24:56;91675.13;;;21.47;100.00
7660;BME280;3872;47.902;8.162;2023-07-29T09:27:24;91665.91;;;21.78;100.00
7660;BME280;3872;47.902;8.162;2023-07-29T09:29:51;91682.22;;;21.66;100.00
7660;BME280;3872;47.902;8.162;2023-07-29T09:32:18;91688.69;;;21.02;100.00
7660;BME280;3872;47.902;8.162;2023-07-29T09:34:47;91677.25;;;21.35;100.00
7660;BME280;3872;47.902;8.162;2023-07-29T09:37:17;91687.28;;;20.85;100.00
7660;BME280;3872;47.902;8.162;2023-07-29T09:39:44;91685.09;;;21.17;100.00
7660;BME280;3872;47.902;8.162;2023-07-29T09:42:17;91679.47;;;20.99;100.00
7660;BME280;3872;47.902;8.162;2023-07-29T09:44:44;91671.56;;;21.36;100.00
7660;BME280;3872;47.902;8.162;2023-07-29T09:47:19;91673.94;;;21.78;100.00
7660;BME280;3872;47.902;8.162;2023-07-29T09:49:47;91669.69;;;21.74;100.00
7660;BME280;3872;47.902;8.162;2023-07-29T09:52:15;91675.50;;;21.83;100.00
7660;BME280;3872;47.902;8.162;2023-07-29T09:54:42;91673.03;;;21.67;100.00
7660;BME280;3872;47.902;8.162;2023-07-29T09:57:09;91680.88;;;21.49;100.00
7660;BME280;3872;47.902;8.162;2023-07-29T09:59:36;91690.53;;;21.58;100.00
7660;BME280;3872;47.902;8.162;2023-07-29T10:02:03;91691.09;;;21.40;98.58
7660;BME280;3872;47.902;8.162;2023-07-29T10:04:31;91692.84;;;21.59;92.39
7660;BME280;3872;47.902;8.162;2023-07-29T10:07:00;91689.28;;;21.48;90.84
7660;BME280;3872;47.902;8.162;2023-07-29T10:09:27;91678.63;;;21.88;85.86
7660;BME280;3872;47.902;8.162;2023-07-29T10:11:55;91682.00;;;21.82;86.67
7660;BME280;3872;47.902;8.162;2023-07-29T10:14:22;91684.28;;;21.80;90.62
7660;BME280;3872;47.902;8.162;2023-07-29T10:16:50;91686.09;;;22.06;89.29
7660;BME280;3872;47.902;8.162;2023-07-29T10:19:18;91684.66;;;21.82;88.24
7660;BME280;3872;47.902;8.162;2023-07-29T10:21:47;91670.63;;;21.55;78.66
7660;BME280;3872;47.902;8.162;2023-07-29T10:24:19;91674.72;;;22.63;69.55
7660;BME280;3872;47.902;8.162;2023-07-29T10:26:49;91693.19;;;22.72;70.32
7660;BME280;3872;47.902;8.162;2023-07-29T10:29:19;91688.94;;;21.86;76.40
7660;BME280;3872;47.902;8.162;2023-07-29T10:31:46;91681.16;;;23.07;72.53
7660;BME280;3872;47.902;8.162;2023-07-29T10:34:14;91675.63;;;22.82;68.68
7660;BME280;3872;47.902;8.162;2023-07-29T10:36:41;91662.81;;;22.13;73.58
7660;BME280;3872;47.902;8.162;2023-07-29T10:39:08;91675.56;;;22.23;74.74
7660;BME280;3872;47.902;8.162;2023-07-29T10:41:56;91663.34;;;22.81;66.86
7660;BME280;3872;47.902;8.162;2023-07-29T10:44:45;91664.56;;;22.90;65.84
7660;BME280;3872;47.902;8.162;2023-07-29T10:47:15;91671.28;;;22.66;67.12
7660;BME280;3872;47.902;8.162;2023-07-29T10:49:41;91660.13;;;22.61;68.50
7660;BME280;3872;47.902;8.162;2023-07-29T10:52:08;91669.72;;;23.24;64.05
7660;BME280;3872;47.902;8.162;2023-07-29T10:54:42;91679.22;;;23.03;66.84
7660;BME280;3872;47.902;8.162;2023-07-29T10:57:13;91673.81;;;22.96;62.82
7660;BME280;3872;47.902;8.162;2023-07-29T10:59:42;91665.06;;;23.07;64.50
7660;BME280;3872;47.902;8.162;2023-07-29T11:02:19;91675.00;;;22.51;65.18
7660;BME280;3872;47.902;8.162;2023-07-29T11:04:46;91673.06;;;22.99;65.82
7660;BME280;3872;47.902;8.162;2023-07-29T11:07:21;91674.31;;;22.14;69.41
7660;BME280;3872;47.902;8.162;2023-07-29T11:09:56;91657.69;;;23.65;67.26
7660;BME280;3872;47.902;8.162;2023-07-29T11:12:35;91659.34;;;24.23;65.14
7660;BME280;3872;47.902;8.162;2023-07-29T11:15:23;91644.56;;;25.52;58.12
7660;BME280;3872;47.902;8.162;2023-07-29T11:18:14;91643.09;;;26.17;55.64
7660;BME280;3872;47.902;8.162;2023-07-29T11:36:52;91653.28;;;23.29;66.19
7660;BME280;3872;47.902;8.162;2023-07-29T11:40:53;91648.53;;;24.02;60.41
7660;BME280;3872;47.902;8.162;2023-07-29T12:37:36;91660.63;;;22.74;76.74
7660;BME280;3872;47.902;8.162;2023-07-29T13:16:32;91682.13;;;22.33;78.42
7660;BME280;3872;47.902;8.162;2023-07-29T13:20:05;91691.34;;;22.83;77.71
7660;BME280;3872;47.902;8.162;2023-07-29T13:23:54;91696.53;;;22.14;77.36
7660;BME280;3872;47.902;8.162;2023-07-29T13:26:59;91702.88;;;22.40;75.75
7660;BME280;3872;47.902;8.162;2023-07-29T13:30:33;91707.19;;;23.02;76.05
7660;BME280;3872;47.902;8.162;2023-07-29T13:41:21;91704.88;;;22.97;67.75
7660;BME280;3872;47.902;8.162;2023-07-29T13:43:47;91702.66;;;22.59;69.80
7660;BME280;3872;47.902;8.162;2023-07-29T13:46:14;91687.25;;;23.72;65.46
7660;BME280;3872;47.902;8.162;2023-07-29T13:48:40;91691.16;;;24.10;63.16
7660;BME280;3872;47.902;8.162;2023-07-29T13:51:07;91700.00;;;23.17;66.47
7660;BME280;3872;47.902;8.162;2023-07-29T13:53:33;91693.63;;;22.78;68.74
7660;BME280;3872;47.902;8.162;2023-07-29T13:56:00;91700.25;;;22.06;74.29
7660;BME280;3872;47.902;8.162;2023-07-29T13:58:28;91704.66;;;22.25;74.90
7660;BME280;3872;47.902;8.162;2023-07-29T14:00:55;91686.22;;;22.20;73.78
7660;BME280;3872;47.902;8.162;2023-07-29T14:03:21;91694.22;;;21.79;77.68
7660;BME280;3872;47.902;8.162;2023-07-29T14:05:48;91693.09;;;21.80;81.85
7660;BME280;3872;47.902;8.162;2023-07-29T14:08:14;91701.34;;;21.68;79.92
7660;BME280;3872;47.902;8.162;2023-07-29T14:10:41;91691.13;;;22.11;77.13
7660;BME280;3872;47.902;8.162;2023-07-29T14:13:07;91701.06;;;21.73;77.84
7660;BME280;3872;47.902;8.162;2023-07-29T14:15:35;91689.66;;;21.83;78.50
7660;BME280;3872;47.902;8.162;2023-07-29T14:18:02;91687.50;;;21.59;78.46
7660;BME280;3872;47.902;8.162;2023-07-29T14:20:29;91686.34;;;22.31;75.46
7660;BME280;3872;47.902;8.162;2023-07-29T14:22:55;91692.00;;;22.22;77.89
7660;BME280;3872;47.902;8.162;2023-07-29T14:25:22;91692.44;;;22.31;75.62
7660;BME280;3872;47.902;8.162;2023-07-29T14:27:49;91692.25;;;22.10;76.10
7660;BME280;3872;47.902;8.162;2023-07-29T14:30:15;91688.59;;;21.88;77.15
7660;BME280;3872;47.902;8.162;2023-07-29T14:32:43;91708.16;;;21.96;73.40
7660;BME280;3872;47.902;8.162;2023-07-29T14:35:10;91708.50;;;21.57;71.63
7660;BME280;3872;47.902;8.162;2023-07-29T14:37:37;91709.69;;;21.60;73.71
7660;BME280;3872;47.902;8.162;2023-07-29T14:40:05;91724.50;;;21.50;77.89
7660;BME280;3872;47.902;8.162;2023-07-29T14:42:32;91734.88;;;21.25;82.15
7660;BME280;3872;47.902;8.162;2023-07-29T14:44:59;91726.22;;;21.69;79.92
7660;BME280;3872;47.902;8.162;2023-07-29T14:47:25;91726.47;;;21.27;83.86
7660;BME280;3872;47.902;8.162;2023-07-29T14:49:53;91729.47;;;21.22;87.37
7660;BME280;3872;47.902;8.162;2023-07-29T14:52:20;91726.63;;;21.11;89.99
7660;BME280;3872;47.902;8.162;2023-07-29T14:54:46;91721.19;;;21.30;87.54
7660;BME280;3872;47.902;8.162;2023-07-29T14:57:13;91712.47;;;21.10;91.89
7660;BME280;3872;47.902;8.162;2023-07-29T14:59:39;91721.59;;;21.06;94.06
7660;BME280;3872;47.902;8.162;2023-07-29T15:02:06;91725.84;;;20.84;96.65
7660;BME280;3872;47.902;8.162;2023-07-29T15:04:33;91716.56;;;20.75;93.30
7660;BME280;3872;47.902;8.162;2023-07-29T15:07:02;91703.88;;;20.45;99.49
7660;BME280;3872;47.902;8.162;2023-07-29T15:09:28;91709.25;;;20.71;97.50
7660;BME280;3872;47.902;8.162;2023-07-29T15:11:55;91719.13;;;20.94;96.69
7660;BME280;3872;47.902;8.162;2023-07-29T15:14:21;91712.13;;;20.86;100.00
7660;BME280;3872;47.902;8.162;2023-07-29T15:16:48;91702.16;;;21.39;92.77
7660;BME280;3872;47.902;8.162;2023-07-29T15:19:14;91703.00;;;21.43;93.45